Time;durP1;ratioP1;P1;durP2;ratioP2;P2;SDS_P1;SDS_P2;PMS_P1;PMS_P2;Temp;Humidity;BMP_temperature;BMP_pressure;BME280_temperature;BME280_humidity;BME280_pressure;Samples;Min_cycle;Max_cycle;Signal;HPM_P1;HPM_P2
2021/09/30 00:01:20;;;;;;;6.63;0.60;;;;;;;;;;5072716;28;20078;-62
2021/09/30 00:03:46;;;;;;;2.30;0.70;;;;;;;;;;5073361;28;20107;-63
2021/09/30 00:06:12;;;;;;;1.98;0.50;;;;;;;;;;5054224;28;20503;-65
2021/09/30 00:08:38;;;;;;;4.18;0.65;;;;;;;;;;5055349;28;20044;-66
2021/09/30 00:11:10;;;;;;;8.52;0.82;;;;;;;;;;5074250;28;20508;-65
2021/09/30 00:13:42;;;;;;;5.28;0.80;;;;;;;;;;5071561;28;20040;-64
2021/09/30 00:45:49;;;;;;;6.47;0.90;;;;;;;;;;5070470;28;20087;-64
2021/09/30 01:34:09;;;;;;;2.65;0.60;;;;;;;;;;5070519;28;20698;-63
2021/09/30 02:20:16;;;;;;;7.25;1.05;;;;;;;;;;5072154;28;20135;-64
2021/09/30 02:25:36;;;;;;;3.40;0.90;;;;;;;;;;5072058;28;20032;-64
2021/09/30 02:28:46;;;;;;;2.33;0.70;;;;;;;;;;5068111;28;20493;-64
2021/09/30 02:58:33;;;;;;;6.00;1.20;;;;;;;;;;5073774;28;20055;-65
2021/09/30 03:01:04;;;;;;;3.40;1.00;;;;;;;;;;5074322;28;20071;-64
2021/09/30 03:03:32;;;;;;;6.53;1.27;;;;;;;;;;5073959;28;20526;-66
2021/09/30 03:05:58;;;;;;;3.97;1.35;;;;;;;;;;5076318;28;20044;-64
2021/09/30 03:08:25;;;;;;;11.75;4.70;;;;;;;;;;5076511;28;20117;-65
2021/09/30 03:10:53;;;;;;;7.45;2.53;;;;;;;;;;5065673;28;20036;-65
2021/09/30 03:13:20;;;;;;;10.48;3.53;;;;;;;;;;5061070;28;20057;-65
2021/09/30 03:15:57;;;;;;;9.55;3.17;;;;;;;;;;5073556;28;20041;-64
2021/09/30 03:23:34;;;;;;;8.52;2.60;;;;;;;;;;5075628;28;20052;-64
2021/09/30 03:26:01;;;;;;;7.70;2.70;;;;;;;;;;5076529;28;20078;-64
2021/09/30 03:28:28;;;;;;;6.88;2.78;;;;;;;;;;5075647;28;20373;-63
2021/09/30 03:30:55;;;;;;;10.18;2.78;;;;;;;;;;5060096;28;20040;-65
2021/09/30 03:33:22;;;;;;;9.70;2.70;;;;;;;;;;5075595;28;20041;-65
2021/09/30 03:35:48;;;;;;;8.32;2.47;;;;;;;;;;5076350;28;20037;-64
2021/09/30 03:38:15;;;;;;;4.90;1.90;;;;;;;;;;5078003;28;20047;-64
2021/09/30 03:40:42;;;;;;;9.65;2.38;;;;;;;;;;5075036;28;20043;-65
2021/09/30 03:43:08;;;;;;;5.82;1.98;;;;;;;;;;5080732;28;20081;-66
2021/09/30 03:45:34;;;;;;;4.30;1.98;;;;;;;;;;5080510;28;20082;-65
2021/09/30 03:47:59;;;;;;;7.70;1.70;;;;;;;;;;5072895;28;20395;-63
2021/09/30 03:50:30;;;;;;;3.53;1.02;;;;;;;;;;5081325;28;20040;-63
2021/09/30 03:53:09;;;;;;;2.75;0.90;;;;;;;;;;5076181;28;20044;-66
2021/09/30 04:00:53;;;;;;;2.42;0.70;;;;;;;;;;5073750;28;20063;-64
2021/09/30 04:03:19;;;;;;;2.25;0.93;;;;;;;;;;5072985;28;20048;-64
2021/09/30 04:05:45;;;;;;;2.10;0.75;;;;;;;;;;5076809;28;20040;-64
2021/09/30 04:08:12;;;;;;;1.65;0.60;;;;;;;;;;5074244;28;20036;-63
2021/09/30 04:10:38;;;;;;;0.68;0.40;;;;;;;;;;5071789;28;20041;-64
2021/09/30 04:13:04;;;;;;;1.77;0.60;;;;;;;;;;5070106;28;20366;-64
2021/09/30 04:15:30;;;;;;;1.02;0.50;;;;;;;;;;5071345;28;20132;-65
2021/09/30 04:17:55;;;;;;;2.28;0.60;;;;;;;;;;5072373;28;20037;-64
2021/09/30 04:20:22;;;;;;;1.27;0.60;;;;;;;;;;5071995;28;20571;-65
2021/09/30 04:22:48;;;;;;;2.72;0.60;;;;;;;;;;5075003;28;20043;-65
2021/09/30 04:25:14;;;;;;;2.70;0.60;;;;;;;;;;5072302;28;20401;-63
2021/09/30 04:27:39;;;;;;;1.52;0.60;;;;;;;;;;5054964;28;20032;-64
2021/09/30 04:30:06;;;;;;;1.20;0.50;;;;;;;;;;5072358;28;20033;-63
2021/09/30 04:32:32;;;;;;;1.75;0.50;;;;;;;;;;5071543;28;20064;-64
2021/09/30 04:34:58;;;;;;;1.48;0.50;;;;;;;;;;5073394;28;20105;-65
2021/09/30 04:37:25;;;;;;;0.57;0.30;;;;;;;;;;5052178;28;20041;-64
2021/09/30 04:39:51;;;;;;;1.58;0.52;;;;;;;;;;5077039;28;20032;-64
2021/09/30 04:42:21;;;;;;;2.80;0.50;;;;;;;;;;5072487;28;20044;-63
2021/09/30 04:44:47;;;;;;;1.60;0.57;;;;;;;;;;5070719;28;21997;-65
2021/09/30 04:47:13;;;;;;;1.20;0.50;;;;;;;;;;5072268;28;20036;-64
2021/09/30 04:49:39;;;;;;;2.10;0.60;;;;;;;;;;5070537;28;20048;-65
2021/09/30 04:52:05;;;;;;;2.80;0.60;;;;;;;;;;5074420;28;20497;-65
2021/09/30 04:54:32;;;;;;;1.98;0.70;;;;;;;;;;5069317;28;20044;-64
2021/09/30 04:56:58;;;;;;;1.42;0.43;;;;;;;;;;5071518;28;20043;-65
2021/09/30 04:59:24;;;;;;;2.05;0.65;;;;;;;;;;5071797;28;20044;-65
2021/09/30 05:01:49;;;;;;;3.20;0.63;;;;;;;;;;5072010;28;20051;-65
2021/09/30 05:04:15;;;;;;;1.52;0.50;;;;;;;;;;5072273;28;20082;-66
2021/09/30 05:06:41;;;;;;;1.75;0.60;;;;;;;;;;5070496;28;20028;-64
2021/09/30 05:09:07;;;;;;;2.15;0.70;;;;;;;;;;5073600;28;20071;-63
2021/09/30 05:11:40;;;;;;;2.40;0.73;;;;;;;;;;5068560;28;20048;-64
2021/09/30 05:14:06;;;;;;;5.03;1.00;;;;;;;;;;5071301;28;20031;-65
2021/09/30 05:16:32;;;;;;;3.20;0.85;;;;;;;;;;5030178;28;20832;-63
2021/09/30 05:18:57;;;;;;;4.38;1.30;;;;;;;;;;5031563;28;20060;-64
2021/09/30 05:21:24;;;;;;;5.20;1.17;;;;;;;;;;5049216;28;20064;-64
2021/09/30 05:23:51;;;;;;;4.63;0.90;;;;;;;;;;5048489;28;20045;-65
2021/09/30 05:26:17;;;;;;;5.03;1.17;;;;;;;;;;5050856;28;20045;-64
2021/09/30 05:28:43;;;;;;;5.30;1.50;;;;;;;;;;5045113;28;20087;-64
2021/09/30 05:31:09;;;;;;;5.13;1.10;;;;;;;;;;5048636;28;20515;-63
2021/09/30 05:33:35;;;;;;;4.28;1.13;;;;;;;;;;5032413;28;20080;-62
2021/09/30 05:36:02;;;;;;;5.03;1.08;;;;;;;;;;5051055;28;20116;-64
2021/09/30 05:38:28;;;;;;;5.03;0.80;;;;;;;;;;5050349;28;20051;-64
2021/09/30 05:40:54;;;;;;;2.15;0.82;;;;;;;;;;5051287;28;20048;-64
2021/09/30 05:43:28;;;;;;;2.63;0.82;;;;;;;;;;5049066;28;20131;-64
2021/09/30 05:45:56;;;;;;;3.03;0.68;;;;;;;;;;5049223;28;20205;-64
2021/09/30 05:48:22;;;;;;;2.42;0.90;;;;;;;;;;5066657;28;20032;-64
2021/09/30 05:50:48;;;;;;;5.15;1.00;;;;;;;;;;5072276;28;20476;-64
2021/09/30 05:53:14;;;;;;;3.38;0.90;;;;;;;;;;5073873;28;20041;-64
2021/09/30 05:55:40;;;;;;;3.67;1.17;;;;;;;;;;5074793;28;20160;-64
2021/09/30 05:58:06;;;;;;;3.85;1.17;;;;;;;;;;5072892;28;20055;-64
2021/09/30 06:00:42;;;;;;;2.67;0.98;;;;;;;;;;5069312;28;20049;-65
2021/09/30 06:04:34;;;;;;;5.10;1.05;;;;;;;;;;5070853;28;20041;-64
2021/09/30 06:16:26;;;;;;;3.45;1.17;;;;;;;;;;5070102;28;20047;-64
2021/09/30 06:18:53;;;;;;;7.53;1.88;;;;;;;;;;5071586;28;20067;-64
2021/09/30 06:21:18;;;;;;;5.80;1.48;;;;;;;;;;5070094;28;20061;-64
2021/09/30 06:23:44;;;;;;;6.55;1.40;;;;;;;;;;5071297;28;20036;-64
2021/09/30 06:26:10;;;;;;;5.47;1.40;;;;;;;;;;5054883;28;21657;-64
2021/09/30 06:28:36;;;;;;;3.88;1.40;;;;;;;;;;5085440;28;20061;-63
2021/09/30 06:31:02;;;;;;;5.05;1.30;;;;;;;;;;5085914;28;20078;-62
2021/09/30 06:33:30;;;;;;;8.80;1.40;;;;;;;;;;5078286;28;20051;-63
2021/09/30 06:35:56;;;;;;;5.30;1.42;;;;;;;;;;5079525;28;20082;-62
2021/09/30 06:38:22;;;;;;;2.83;1.30;;;;;;;;;;5075849;28;20070;-64
2021/09/30 06:40:48;;;;;;;3.85;1.27;;;;;;;;;;5075176;28;20068;-64
2021/09/30 06:43:13;;;;;;;7.45;1.63;;;;;;;;;;5074606;28;20048;-64
2021/09/30 06:45:39;;;;;;;5.18;1.40;;;;;;;;;;5053306;28;20112;-63
2021/09/30 06:48:05;;;;;;;6.70;1.50;;;;;;;;;;5071469;28;20404;-64
2021/09/30 06:50:31;;;;;;;3.67;1.27;;;;;;;;;;5069623;28;20032;-64
2021/09/30 06:52:57;;;;;;;3.45;1.52;;;;;;;;;;5070541;28;20032;-64
2021/09/30 06:55:23;;;;;;;4.10;1.33;;;;;;;;;;5069703;28;20037;-64
2021/09/30 06:57:50;;;;;;;7.82;1.70;;;;;;;;;;5070453;28;20048;-64
2021/09/30 07:00:16;;;;;;;6.13;1.48;;;;;;;;;;5072936;28;20181;-65
2021/09/30 07:02:42;;;;;;;5.28;1.40;;;;;;;;;;5070637;28;21178;-64
2021/09/30 07:05:09;;;;;;;6.03;1.42;;;;;;;;;;5073846;28;20122;-64
2021/09/30 07:07:35;;;;;;;6.07;1.40;;;;;;;;;;5070758;28;20039;-63
2021/09/30 07:10:01;;;;;;;5.28;1.67;;;;;;;;;;5069506;28;20040;-63
2021/09/30 07:12:27;;;;;;;3.95;1.58;;;;;;;;;;5070765;28;20047;-63
2021/09/30 07:14:53;;;;;;;4.30;1.63;;;;;;;;;;5071662;28;20040;-64
2021/09/30 07:17:20;;;;;;;3.35;1.55;;;;;;;;;;5073904;28;20044;-63
2021/09/30 07:19:45;;;;;;;4.55;1.73;;;;;;;;;;5078109;28;20036;-64
2021/09/30 07:22:11;;;;;;;3.10;1.15;;;;;;;;;;5078294;28;20047;-63
2021/09/30 07:24:37;;;;;;;4.00;1.35;;;;;;;;;;5078845;28;20035;-63
2021/09/30 07:27:04;;;;;;;3.33;1.23;;;;;;;;;;5070182;28;20059;-63
2021/09/30 07:29:30;;;;;;;6.28;1.58;;;;;;;;;;5051656;28;20037;-63
2021/09/30 07:31:56;;;;;;;5.32;1.60;;;;;;;;;;5075329;28;20378;-63
2021/09/30 07:34:22;;;;;;;4.57;1.30;;;;;;;;;;5059948;28;20047;-65
2021/09/30 07:36:48;;;;;;;6.50;1.55;;;;;;;;;;5075170;28;20040;-64
2021/09/30 07:39:16;;;;;;;6.85;1.83;;;;;;;;;;5076938;28;20465;-63
2021/09/30 07:41:42;;;;;;;6.05;1.80;;;;;;;;;;5073627;28;20040;-63
2021/09/30 07:44:08;;;;;;;6.35;1.73;;;;;;;;;;5074551;28;20040;-63
2021/09/30 07:46:35;;;;;;;5.25;1.60;;;;;;;;;;5074849;28;20040;-63
2021/09/30 07:49:03;;;;;;;8.65;1.80;;;;;;;;;;5074076;28;20063;-62
2021/09/30 07:51:29;;;;;;;12.25;1.63;;;;;;;;;;5074350;28;20105;-62
2021/09/30 07:53:55;;;;;;;6.85;1.58;;;;;;;;;;5075992;28;20044;-63
2021/09/30 07:56:22;;;;;;;3.75;1.70;;;;;;;;;;5074150;28;20096;-62
2021/09/30 07:58:48;;;;;;;5.18;1.75;;;;;;;;;;5073951;28;20040;-63
2021/09/30 08:01:14;;;;;;;4.88;1.70;;;;;;;;;;5074568;28;20056;-62
2021/09/30 08:03:39;;;;;;;3.25;1.23;;;;;;;;;;5070768;28;20062;-63
2021/09/30 08:06:05;;;;;;;3.33;1.40;;;;;;;;;;5072797;28;20111;-62
2021/09/30 08:08:31;;;;;;;4.93;1.30;;;;;;;;;;5070862;28;20923;-64
2021/09/30 08:10:59;;;;;;;3.42;1.20;;;;;;;;;;5073020;28;20441;-63
2021/09/30 08:13:25;;;;;;;6.80;1.50;;;;;;;;;;5072815;28;20040;-63
2021/09/30 08:15:51;;;;;;;7.07;1.30;;;;;;;;;;5073732;28;20097;-63
2021/09/30 08:18:17;;;;;;;3.38;1.38;;;;;;;;;;5073268;28;20040;-63
2021/09/30 08:20:44;;;;;;;7.40;1.60;;;;;;;;;;5071122;28;20048;-63
2021/09/30 08:23:13;;;;;;;4.05;1.58;;;;;;;;;;5072376;28;20040;-63
2021/09/30 08:25:41;;;;;;;9.95;1.55;;;;;;;;;;5057000;28;20477;-63
2021/09/30 08:28:07;;;;;;;4.00;1.58;;;;;;;;;;5072183;28;20135;-63
2021/09/30 08:30:33;;;;;;;7.32;1.60;;;;;;;;;;5072029;28;20033;-64
2021/09/30 08:33:00;;;;;;;4.03;1.42;;;;;;;;;;5073828;28;20114;-63
2021/09/30 08:35:26;;;;;;;7.13;1.63;;;;;;;;;;5074065;28;20043;-64
2021/09/30 08:37:52;;;;;;;3.50;1.40;;;;;;;;;;5074374;28;20040;-64
2021/09/30 08:40:18;;;;;;;4.80;1.25;;;;;;;;;;5075810;28;20058;-64
2021/09/30 08:42:47;;;;;;;4.30;1.13;;;;;;;;;;5076767;28;20448;-63
2021/09/30 08:45:15;;;;;;;3.47;1.40;;;;;;;;;;5072552;28;20036;-64
2021/09/30 08:47:41;;;;;;;3.92;1.27;;;;;;;;;;5068153;28;20035;-63
2021/09/30 08:50:07;;;;;;;4.57;1.15;;;;;;;;;;5060240;28;20416;-63
2021/09/30 08:52:33;;;;;;;3.50;1.25;;;;;;;;;;5064336;28;20056;-63
2021/09/30 08:54:59;;;;;;;3.53;1.00;;;;;;;;;;5074686;28;20057;-63
2021/09/30 08:57:25;;;;;;;3.10;1.10;;;;;;;;;;5066488;28;20036;-63
2021/09/30 09:00:06;;;;;;;3.30;1.00;;;;;;;;;;5068206;28;20043;-65
2021/09/30 09:02:37;;;;;;;5.18;1.10;;;;;;;;;;5060293;28;20040;-65
2021/09/30 09:05:03;;;;;;;10.13;1.13;;;;;;;;;;5070125;28;20046;-64
2021/09/30 09:07:30;;;;;;;3.58;1.00;;;;;;;;;;5067753;28;20973;-63
2021/09/30 09:09:57;;;;;;;2.30;0.80;;;;;;;;;;5067216;28;20032;-63
2021/09/30 09:12:23;;;;;;;6.45;0.88;;;;;;;;;;5066074;28;21312;-63
2021/09/30 09:14:49;;;;;;;4.10;1.20;;;;;;;;;;5067793;28;20198;-63
2021/09/30 09:17:16;;;;;;;7.55;1.20;;;;;;;;;;5067200;28;20068;-63
2021/09/30 09:19:42;;;;;;;2.92;0.90;;;;;;;;;;5067331;28;20052;-63
2021/09/30 09:22:09;;;;;;;4.80;1.17;;;;;;;;;;5069503;28;20059;-63
2021/09/30 09:24:36;;;;;;;3.47;1.20;;;;;;;;;;5066926;28;20692;-62
2021/09/30 09:27:02;;;;;;;4.70;1.15;;;;;;;;;;5069819;28;20105;-64
2021/09/30 09:29:29;;;;;;;3.63;0.80;;;;;;;;;;5068472;28;20154;-63
2021/09/30 09:32:02;;;;;;;2.70;0.88;;;;;;;;;;5069673;28;20092;-64
2021/09/30 09:34:30;;;;;;;2.33;0.80;;;;;;;;;;5050882;28;20533;-62
2021/09/30 09:37:14;;;;;;;2.65;0.90;;;;;;;;;;5067959;28;20346;-63
2021/09/30 09:39:40;;;;;;;3.63;1.40;;;;;;;;;;5061848;28;20037;-63
2021/09/30 09:42:16;;;;;;;5.80;1.60;;;;;;;;;;5068735;28;20124;-61
2021/09/30 09:45:04;;;;;;;2.83;1.15;;;;;;;;;;5068408;28;20036;-63
2021/09/30 09:47:31;;;;;;;4.68;1.40;;;;;;;;;;5071693;28;20110;-63
2021/09/30 09:50:16;;;;;;;4.07;1.42;;;;;;;;;;5071051;28;20029;-63
2021/09/30 09:52:44;;;;;;;4.00;1.02;;;;;;;;;;5067330;28;20040;-63
2021/09/30 09:55:13;;;;;;;4.15;1.20;;;;;;;;;;5070822;28;20043;-63
2021/09/30 09:57:40;;;;;;;9.23;1.15;;;;;;;;;;5069404;28;20036;-63
2021/09/30 10:00:24;;;;;;;7.07;1.15;;;;;;;;;;5069798;28;20123;-64
2021/09/30 10:02:51;;;;;;;3.08;1.08;;;;;;;;;;5068630;28;20676;-63
2021/09/30 10:05:21;;;;;;;3.47;1.13;;;;;;;;;;5073621;28;20040;-64
2021/09/30 10:07:47;;;;;;;4.15;1.20;;;;;;;;;;5070713;28;20033;-63
2021/09/30 10:10:15;;;;;;;5.55;1.40;;;;;;;;;;5057044;28;20036;-63
2021/09/30 10:12:42;;;;;;;3.15;1.27;;;;;;;;;;5051648;28;20126;-64
2021/09/30 10:15:08;;;;;;;3.05;1.00;;;;;;;;;;5054261;28;20123;-61
2021/09/30 10:17:34;;;;;;;3.78;1.02;;;;;;;;;;5073233;28;20060;-63
2021/09/30 10:20:00;;;;;;;5.30;1.20;;;;;;;;;;5073886;28;23087;-63
2021/09/30 10:22:26;;;;;;;1.92;0.73;;;;;;;;;;5052984;28;20036;-62
2021/09/30 10:24:55;;;;;;;3.50;1.10;;;;;;;;;;5073893;28;20346;-62
2021/09/30 10:27:21;;;;;;;2.30;0.90;;;;;;;;;;5072525;28;20047;-63
2021/09/30 10:29:47;;;;;;;3.28;1.00;;;;;;;;;;5073488;28;20060;-63
2021/09/30 10:32:22;;;;;;;2.22;0.77;;;;;;;;;;5073028;28;20079;-63
2021/09/30 10:34:54;;;;;;;2.47;0.82;;;;;;;;;;5073144;28;20499;-63
2021/09/30 10:37:31;;;;;;;3.00;0.80;;;;;;;;;;5074932;28;20038;-63
2021/09/30 10:40:16;;;;;;;2.72;0.75;;;;;;;;;;5072969;28;20090;-63
2021/09/30 10:42:58;;;;;;;3.53;1.20;;;;;;;;;;5070826;28;20473;-60
2021/09/30 10:45:40;;;;;;;3.35;0.90;;;;;;;;;;5070537;28;20184;-61
2021/09/30 10:48:07;;;;;;;3.35;1.00;;;;;;;;;;5070439;28;20064;-63
2021/09/30 10:50:48;;;;;;;2.72;0.88;;;;;;;;;;5054848;28;20040;-64
2021/09/30 10:53:13;;;;;;;3.13;0.80;;;;;;;;;;5070572;28;20058;-64
2021/09/30 10:55:39;;;;;;;2.88;0.90;;;;;;;;;;5069471;28;20040;-62
2021/09/30 10:58:19;;;;;;;3.40;0.80;;;;;;;;;;5075151;28;20032;-64
2021/09/30 11:00:47;;;;;;;2.45;0.82;;;;;;;;;;5071827;28;20071;-63
2021/09/30 11:03:15;;;;;;;4.57;0.95;;;;;;;;;;5070581;28;20136;-64
2021/09/30 11:05:42;;;;;;;3.35;1.10;;;;;;;;;;5070818;28;20044;-63
2021/09/30 11:08:19;;;;;;;3.13;1.13;;;;;;;;;;5076020;28;20037;-62
2021/09/30 11:11:08;;;;;;;6.35;1.45;;;;;;;;;;5043776;28;20047;-64
2021/09/30 11:13:40;;;;;;;4.05;1.15;;;;;;;;;;5077276;28;20067;-64
2021/09/30 11:16:07;;;;;;;3.95;1.20;;;;;;;;;;5078828;28;20040;-64
2021/09/30 11:18:51;;;;;;;5.68;0.90;;;;;;;;;;5079547;28;20039;-64
2021/09/30 11:21:32;;;;;;;3.05;0.93;;;;;;;;;;5083712;28;20044;-63
2021/09/30 11:24:02;;;;;;;2.45;0.80;;;;;;;;;;5075319;28;20060;-63
2021/09/30 11:26:30;;;;;;;3.38;0.88;;;;;;;;;;5049510;28;20043;-63
2021/09/30 11:29:15;;;;;;;4.00;0.90;;;;;;;;;;5049930;28;20531;-62
2021/09/30 11:31:41;;;;;;;2.05;0.60;;;;;;;;;;5077400;28;20048;-63
2021/09/30 11:34:16;;;;;;;3.25;0.85;;;;;;;;;;5081099;28;20056;-63
2021/09/30 11:36:43;;;;;;;1.95;0.65;;;;;;;;;;5077843;28;20055;-65
2021/09/30 11:39:09;;;;;;;3.15;0.80;;;;;;;;;;5079979;28;20040;-63
2021/09/30 11:41:36;;;;;;;2.15;0.65;;;;;;;;;;5077285;28;20147;-62
2021/09/30 11:44:02;;;;;;;2.97;0.77;;;;;;;;;;5080460;28;20120;-61
2021/09/30 11:46:31;;;;;;;2.47;0.70;;;;;;;;;;5075839;28;20032;-61
2021/09/30 11:48:57;;;;;;;2.25;0.75;;;;;;;;;;5083339;28;20062;-62
2021/09/30 11:51:29;;;;;;;3.65;0.90;;;;;;;;;;5089615;28;20056;-62
2021/09/30 11:53:55;;;;;;;3.28;0.80;;;;;;;;;;5083466;28;20127;-63
2021/09/30 11:56:21;;;;;;;2.20;0.70;;;;;;;;;;5074999;28;20127;-63
2021/09/30 11:58:59;;;;;;;2.72;0.80;;;;;;;;;;5077447;28;20056;-63
2021/09/30 12:01:42;;;;;;;4.80;0.77;;;;;;;;;;5079105;28;20070;-63
2021/09/30 12:04:08;;;;;;;2.75;0.65;;;;;;;;;;5074306;28;20523;-62
2021/09/30 12:06:47;;;;;;;2.42;0.73;;;;;;;;;;5074570;28;20514;-62
2021/09/30 12:09:16;;;;;;;4.65;0.80;;;;;;;;;;5074449;28;20039;-60
2021/09/30 12:12:03;;;;;;;2.95;0.70;;;;;;;;;;5074578;28;20052;-64
2021/09/30 12:14:36;;;;;;;3.20;0.80;;;;;;;;;;5054463;28;20041;-65
2021/09/30 12:17:04;;;;;;;2.65;0.80;;;;;;;;;;5060581;28;20109;-63
2021/09/30 12:19:31;;;;;;;2.35;0.70;;;;;;;;;;5074483;28;20108;-62
2021/09/30 12:21:57;;;;;;;5.90;0.98;;;;;;;;;;5075468;28;20423;-63
2021/09/30 12:24:29;;;;;;;6.35;0.98;;;;;;;;;;5072517;28;20283;-63
2021/09/30 12:26:56;;;;;;;2.83;0.85;;;;;;;;;;5076099;28;20058;-61
2021/09/30 12:29:22;;;;;;;2.45;0.88;;;;;;;;;;5073101;28;20100;-63
2021/09/30 12:32:01;;;;;;;2.90;0.82;;;;;;;;;;5073221;28;20119;-63
2021/09/30 12:34:27;;;;;;;2.88;0.90;;;;;;;;;;5072681;28;20044;-60
2021/09/30 12:36:53;;;;;;;3.33;0.90;;;;;;;;;;5071149;28;20041;-62
2021/09/30 12:39:26;;;;;;;2.05;0.65;;;;;;;;;;5072921;28;20122;-62
2021/09/30 12:41:53;;;;;;;4.72;0.80;;;;;;;;;;5073128;28;20477;-64
2021/09/30 12:44:19;;;;;;;1.92;0.70;;;;;;;;;;5069004;28;20232;-64
2021/09/30 12:46:46;;;;;;;5.28;1.55;;;;;;;;;;5071621;28;20036;-63
2021/09/30 12:49:14;;;;;;;3.75;1.02;;;;;;;;;;5071141;28;20497;-63
2021/09/30 12:51:39;;;;;;;2.97;1.00;;;;;;;;;;5072596;28;20071;-62
2021/09/30 12:54:05;;;;;;;5.13;1.10;;;;;;;;;;5074071;28;20056;-64
2021/09/30 12:56:33;;;;;;;2.33;0.70;;;;;;;;;;5072008;28;20059;-64
2021/09/30 12:59:12;;;;;;;2.42;0.80;;;;;;;;;;5073840;28;20119;-63
2021/09/30 13:01:38;;;;;;;3.95;0.95;;;;;;;;;;5073483;28;20440;-64
2021/09/30 13:04:04;;;;;;;9.50;1.20;;;;;;;;;;5075684;28;20069;-63
2021/09/30 13:06:29;;;;;;;2.47;0.95;;;;;;;;;;5072646;28;20040;-65
2021/09/30 13:08:55;;;;;;;3.80;0.85;;;;;;;;;;5073042;28;20039;-63
2021/09/30 13:11:31;;;;;;;6.10;0.90;;;;;;;;;;5073524;28;20432;-65
2021/09/30 13:14:15;;;;;;;2.72;0.93;;;;;;;;;;5076437;28;20036;-64
2021/09/30 13:16:42;;;;;;;5.88;0.90;;;;;;;;;;5073759;28;20864;-64
2021/09/30 13:19:08;;;;;;;3.83;0.82;;;;;;;;;;5074325;28;20098;-64
2021/09/30 13:21:52;;;;;;;6.43;0.85;;;;;;;;;;5074779;28;20067;-63
2021/09/30 13:24:18;;;;;;;3.83;0.77;;;;;;;;;;5054398;28;20032;-65
2021/09/30 13:26:44;;;;;;;2.00;0.70;;;;;;;;;;5075016;28;20515;-64
2021/09/30 13:29:10;;;;;;;2.70;0.70;;;;;;;;;;5074036;28;20039;-64
2021/09/30 13:31:36;;;;;;;3.58;0.90;;;;;;;;;;5056453;28;20090;-61
2021/09/30 13:34:02;;;;;;;3.10;0.93;;;;;;;;;;5072620;28;20090;-63
2021/09/30 13:36:28;;;;;;;8.10;1.00;;;;;;;;;;5071104;28;20090;-63
2021/09/30 13:38:54;;;;;;;2.60;0.73;;;;;;;;;;5074671;28;20044;-64
2021/09/30 13:41:20;;;;;;;3.40;0.82;;;;;;;;;;5073816;28;20054;-63
2021/09/30 13:43:46;;;;;;;3.10;0.90;;;;;;;;;;5044724;28;20523;-63
2021/09/30 13:46:11;;;;;;;2.13;0.68;;;;;;;;;;5072774;28;20062;-64
2021/09/30 13:48:37;;;;;;;4.50;0.90;;;;;;;;;;5071333;28;20105;-62
2021/09/30 13:51:03;;;;;;;4.68;1.00;;;;;;;;;;5072341;28;20114;-63
2021/09/30 13:53:29;;;;;;;3.08;0.75;;;;;;;;;;5072025;28;20123;-63
2021/09/30 13:55:55;;;;;;;3.63;1.08;;;;;;;;;;5075821;28;20036;-64
2021/09/30 13:58:21;;;;;;;3.50;0.90;;;;;;;;;;5072709;28;20800;-64
2021/09/30 14:00:47;;;;;;;5.55;1.13;;;;;;;;;;5073507;28;20045;-64
2021/09/30 14:03:13;;;;;;;3.60;1.08;;;;;;;;;;5072579;28;20028;-63
2021/09/30 14:05:39;;;;;;;3.83;0.88;;;;;;;;;;5073553;28;20043;-63
2021/09/30 14:08:05;;;;;;;4.93;1.40;;;;;;;;;;5074127;28;20106;-62
2021/09/30 14:10:31;;;;;;;7.07;1.08;;;;;;;;;;5071583;28;20135;-65
2021/09/30 14:12:56;;;;;;;2.95;0.80;;;;;;;;;;5073250;28;20133;-65
2021/09/30 14:15:22;;;;;;;5.05;0.80;;;;;;;;;;5071793;28;20053;-64
2021/09/30 14:17:48;;;;;;;6.07;1.05;;;;;;;;;;5036232;28;20036;-62
2021/09/30 14:20:14;;;;;;;7.38;0.95;;;;;;;;;;5073554;28;20040;-63
2021/09/30 14:22:41;;;;;;;2.85;0.88;;;;;;;;;;5071845;28;20129;-64
2021/09/30 14:25:07;;;;;;;2.13;0.80;;;;;;;;;;5061144;28;20032;-63
2021/09/30 14:27:34;;;;;;;5.55;0.93;;;;;;;;;;5071279;28;20037;-63
2021/09/30 14:30:00;;;;;;;5.55;1.02;;;;;;;;;;5072465;28;20686;-64
2021/09/30 14:32:26;;;;;;;7.68;1.65;;;;;;;;;;5073194;28;20124;-64
2021/09/30 14:34:52;;;;;;;4.32;1.00;;;;;;;;;;5051606;28;20365;-64
2021/09/30 14:37:19;;;;;;;4.65;1.15;;;;;;;;;;5071493;28;20041;-63
2021/09/30 14:39:45;;;;;;;4.55;1.13;;;;;;;;;;5070453;28;20037;-65
2021/09/30 14:42:11;;;;;;;8.02;1.55;;;;;;;;;;5070758;28;20055;-61
2021/09/30 14:44:38;;;;;;;5.03;1.30;;;;;;;;;;5069188;28;20596;-64
2021/09/30 14:47:04;;;;;;;3.83;1.30;;;;;;;;;;5056110;28;20028;-65
2021/09/30 14:49:33;;;;;;;3.70;1.30;;;;;;;;;;5075254;28;20090;-63
2021/09/30 14:51:59;;;;;;;3.05;0.90;;;;;;;;;;5076534;28;20131;-63
2021/09/30 14:54:25;;;;;;;4.22;1.23;;;;;;;;;;5075990;28;20147;-63
2021/09/30 14:56:51;;;;;;;4.82;1.20;;;;;;;;;;5077692;28;21068;-63
2021/09/30 14:59:17;;;;;;;6.88;1.23;;;;;;;;;;5057980;28;20033;-63
2021/09/30 15:01:43;;;;;;;3.13;0.95;;;;;;;;;;5077127;28;20148;-65
2021/09/30 15:04:09;;;;;;;10.77;1.10;;;;;;;;;;5074646;28;20036;-64
2021/09/30 15:06:38;;;;;;;2.72;0.82;;;;;;;;;;5074913;28;20493;-63
2021/09/30 15:09:04;;;;;;;11.40;1.10;;;;;;;;;;5073376;28;20508;-64
2021/09/30 15:11:29;;;;;;;7.45;1.10;;;;;;;;;;5077703;28;20056;-63
2021/09/30 15:13:55;;;;;;;3.50;0.90;;;;;;;;;;5076460;28;20055;-65
2021/09/30 15:16:22;;;;;;;4.38;0.70;;;;;;;;;;5078261;28;20526;-63
2021/09/30 15:21:25;;;;;;;6.95;1.00;;;;;;;;;;5081789;28;20050;-63
2021/09/30 15:23:56;;;;;;;2.63;0.85;;;;;;;;;;5078943;28;20028;-64
2021/09/30 15:26:26;;;;;;;6.47;1.10;;;;;;;;;;5065010;28;20040;-63
2021/09/30 15:28:53;;;;;;;5.88;1.10;;;;;;;;;;5077804;28;20032;-64
2021/09/30 15:31:20;;;;;;;4.93;1.20;;;;;;;;;;5079117;28;20074;-64
2021/09/30 15:33:46;;;;;;;13.38;1.30;;;;;;;;;;5060898;28;20465;-63
2021/09/30 15:36:13;;;;;;;5.32;1.30;;;;;;;;;;5079911;28;20048;-64
2021/09/30 15:38:39;;;;;;;5.93;1.00;;;;;;;;;;5078391;28;20044;-64
2021/09/30 15:41:05;;;;;;;5.50;1.20;;;;;;;;;;5078717;28;20047;-64
2021/09/30 15:43:32;;;;;;;8.00;1.42;;;;;;;;;;5057582;28;20075;-64
2021/09/30 15:45:59;;;;;;;7.22;1.42;;;;;;;;;;5059449;28;20039;-63
2021/09/30 15:48:25;;;;;;;10.35;1.48;;;;;;;;;;5073677;28;20044;-66
2021/09/30 15:50:51;;;;;;;6.45;1.23;;;;;;;;;;5077471;28;20108;-64
2021/09/30 15:53:17;;;;;;;4.53;0.77;;;;;;;;;;5076086;28;20036;-64
2021/09/30 15:55:43;;;;;;;4.93;1.00;;;;;;;;;;5074450;28;20044;-63
2021/09/30 15:58:09;;;;;;;9.27;1.30;;;;;;;;;;5075349;28;20036;-64
2021/09/30 16:00:35;;;;;;;7.38;1.00;;;;;;;;;;5054647;28;20052;-64
2021/09/30 16:03:01;;;;;;;9.40;1.20;;;;;;;;;;5072932;28;20036;-64
2021/09/30 16:05:27;;;;;;;3.20;0.95;;;;;;;;;;5074216;28;20040;-64
2021/09/30 16:07:53;;;;;;;5.80;1.00;;;;;;;;;;5075130;28;20054;-64
2021/09/30 16:10:19;;;;;;;12.77;2.08;;;;;;;;;;5074500;28;20158;-65
2021/09/30 16:12:46;;;;;;;11.35;1.75;;;;;;;;;;5074159;28;20132;-65
2021/09/30 16:15:12;;;;;;;6.80;1.08;;;;;;;;;;5075261;28;20044;-63
2021/09/30 16:17:39;;;;;;;9.05;1.38;;;;;;;;;;5074438;28;20101;-64
2021/09/30 16:20:06;;;;;;;9.20;1.35;;;;;;;;;;5074539;28;20048;-64
2021/09/30 16:22:33;;;;;;;15.68;2.03;;;;;;;;;;5074085;28;20056;-64
2021/09/30 16:24:59;;;;;;;15.82;2.72;;;;;;;;;;5072314;28;20111;-64
2021/09/30 16:27:28;;;;;;;21.23;1.92;;;;;;;;;;5075040;28;20667;-64
2021/09/30 16:29:54;;;;;;;12.30;2.13;;;;;;;;;;5074021;28;20101;-64
2021/09/30 16:32:20;;;;;;;5.97;1.50;;;;;;;;;;5073020;28;20051;-64
2021/09/30 16:34:46;;;;;;;8.05;1.63;;;;;;;;;;5073966;28;20044;-65
2021/09/30 16:37:12;;;;;;;8.27;1.77;;;;;;;;;;5073531;28;20036;-65
2021/09/30 16:39:38;;;;;;;7.95;1.38;;;;;;;;;;5055420;28;20123;-64
2021/09/30 16:42:04;;;;;;;15.70;1.92;;;;;;;;;;5074703;28;20056;-65
2021/09/30 16:44:30;;;;;;;11.50;2.50;;;;;;;;;;5070614;28;20039;-64
2021/09/30 16:46:56;;;;;;;10.02;2.00;;;;;;;;;;5073744;28;20046;-64
2021/09/30 16:49:22;;;;;;;8.45;1.15;;;;;;;;;;5074989;28;20693;-64
2021/09/30 16:51:49;;;;;;;8.88;1.50;;;;;;;;;;5073695;28;20044;-64
2021/09/30 16:54:18;;;;;;;3.55;1.05;;;;;;;;;;5052760;28;20035;-64
2021/09/30 16:56:45;;;;;;;7.18;1.67;;;;;;;;;;5070696;28;20117;-64
2021/09/30 16:59:12;;;;;;;5.68;1.33;;;;;;;;;;5074185;28;20040;-64
2021/09/30 17:01:39;;;;;;;8.80;1.35;;;;;;;;;;5075167;28;20131;-64
2021/09/30 17:04:05;;;;;;;11.43;1.63;;;;;;;;;;5073946;28;20040;-63
2021/09/30 17:06:31;;;;;;;4.00;0.77;;;;;;;;;;5073432;28;20554;-64
2021/09/30 17:08:57;;;;;;;6.07;1.27;;;;;;;;;;5076207;28;20486;-64
2021/09/30 17:11:22;;;;;;;7.50;1.33;;;;;;;;;;5075398;28;20547;-64
2021/09/30 17:13:48;;;;;;;10.48;1.67;;;;;;;;;;5058328;28;20500;-64
2021/09/30 17:16:15;;;;;;;4.97;1.13;;;;;;;;;;5065533;28;20040;-63
2021/09/30 17:18:41;;;;;;;5.80;1.20;;;;;;;;;;5078746;28;20595;-64
2021/09/30 17:21:07;;;;;;;4.40;0.85;;;;;;;;;;5081877;28;20101;-64
2021/09/30 17:23:33;;;;;;;5.10;0.85;;;;;;;;;;5078645;28;20867;-63
2021/09/30 17:25:59;;;;;;;10.32;0.80;;;;;;;;;;5080053;28;20032;-65
2021/09/30 17:28:26;;;;;;;2.90;0.73;;;;;;;;;;5058807;28;20135;-64
2021/09/30 17:30:53;;;;;;;7.25;0.75;;;;;;;;;;5075376;28;20641;-64
2021/09/30 17:33:19;;;;;;;2.97;0.85;;;;;;;;;;5075158;28;20044;-63
2021/09/30 17:35:45;;;;;;;3.92;0.60;;;;;;;;;;5057234;28;20166;-65
2021/09/30 17:38:11;;;;;;;5.65;0.90;;;;;;;;;;5075035;28;20135;-64
2021/09/30 17:40:37;;;;;;;3.78;0.77;;;;;;;;;;5052463;28;20052;-64